sensor_id;sensor_type;location;lat;lon;timestamp;temperature;humidity
64796;DHT22;51229;51.980;6.722;2023-03-21T00:01:11;6.00;99.90
64796;DHT22;51229;51.980;6.722;2023-03-21T00:03:37;6.00;99.90
64796;DHT22;51229;51.980;6.722;2023-03-21T00:06:07;6.00;99.90
64796;DHT22;51229;51.980;6.722;2023-03-21T00:08:33;6.00;99.90
64796;DHT22;51229;51.980;6.722;2023-03-21T00:11:01;6.00;99.90
64796;DHT22;51229;51.980;6.722;2023-03-21T00:13:29;6.10;99.90
64796;DHT22;51229;51.980;6.722;2023-03-21T00:16:02;6.00;99.90
64796;DHT22;51229;51.980;6.722;2023-03-21T00:18:28;6.00;99.90
64796;DHT22;51229;51.980;6.722;2023-03-21T00:21:01;6.00;99.90
64796;DHT22;51229;51.980;6.722;2023-03-21T00:23:29;6.00;99.90
64796;DHT22;51229;51.980;6.722;2023-03-21T00:25:56;6.10;99.90
64796;DHT22;51229;51.980;6.722;2023-03-21T00:28:22;6.00;99.90
64796;DHT22;51229;51.980;6.722;2023-03-21T00:30:49;6.00;99.90
64796;DHT22;51229;51.980;6.722;2023-03-21T00:33:14;5.90;99.90
64796;DHT22;51229;51.980;6.722;2023-03-21T00:35:41;6.00;99.90
64796;DHT22;51229;51.980;6.722;2023-03-21T00:38:09;6.00;99.90
64796;DHT22;51229;51.980;6.722;2023-03-21T00:40:35;6.00;99.90
64796;DHT22;51229;51.980;6.722;2023-03-21T00:43:01;6.00;99.90
64796;DHT22;51229;51.980;6.722;2023-03-21T00:45:27;6.00;99.90
64796;DHT22;51229;51.980;6.722;2023-03-21T00:47:53;6.00;99.90
64796;DHT22;51229;51.980;6.722;2023-03-21T00:50:19;6.10;99.90
64796;DHT22;51229;51.980;6.722;2023-03-21T00:52:44;6.00;99.90
64796;DHT22;51229;51.980;6.722;2023-03-21T00:55:15;6.00;99.90
64796;DHT22;51229;51.980;6.722;2023-03-21T00:57:41;6.00;99.90
64796;DHT22;51229;51.980;6.722;2023-03-21T01:00:10;6.00;99.90
64796;DHT22;51229;51.980;6.722;2023-03-21T01:02:38;6.00;99.90
64796;DHT22;51229;51.980;6.722;2023-03-21T01:05:08;6.10;99.90
64796;DHT22;51229;51.980;6.722;2023-03-21T01:07:34;6.10;99.90
64796;DHT22;51229;51.980;6.722;2023-03-21T01:09:59;6.00;99.90
64796;DHT22;51229;51.980;6.722;2023-03-21T01:12:25;6.00;99.90
64796;DHT22;51229;51.980;6.722;2023-03-21T01:14:52;6.00;99.90
64796;DHT22;51229;51.980;6.722;2023-03-21T01:17:18;5.90;99.90
64796;DHT22;51229;51.980;6.722;2023-03-21T01:19:44;5.90;99.90
64796;DHT22;51229;51.980;6.722;2023-03-21T01:22:11;5.90;99.90
64796;DHT22;51229;51.980;6.722;2023-03-21T01:24:37;5.90;99.90
64796;DHT22;51229;51.980;6.722;2023-03-21T01:27:02;6.00;99.90
64796;DHT22;51229;51.980;6.722;2023-03-21T01:29:28;6.00;99.90
64796;DHT22;51229;51.980;6.722;2023-03-21T01:31:56;5.90;99.90
64796;DHT22;51229;51.980;6.722;2023-03-21T01:34:22;5.90;99.90
64796;DHT22;51229;51.980;6.722;2023-03-21T01:36:47;5.70;99.90
64796;DHT22;51229;51.980;6.722;2023-03-21T01:39:17;5.70;99.90
64796;DHT22;51229;51.980;6.722;2023-03-21T01:41:46;5.70;99.90
64796;DHT22;51229;51.980;6.722;2023-03-21T01:44:24;5.70;99.90
64796;DHT22;51229;51.980;6.722;2023-03-21T01:46:51;5.60;99.90
64796;DHT22;51229;51.980;6.722;2023-03-21T01:49:49;5.60;99.90
64796;DHT22;51229;51.980;6.722;2023-03-21T01:52:38;5.70;99.90
64796;DHT22;51229;51.980;6.722;2023-03-21T01:55:13;5.80;99.90
64796;DHT22;51229;51.980;6.722;2023-03-21T01:57:52;5.70;99.90
64796;DHT22;51229;51.980;6.722;2023-03-21T02:00:23;5.70;99.90
64796;DHT22;51229;51.980;6.722;2023-03-21T02:02:59;5.80;99.90
64796;DHT22;51229;51.980;6.722;2023-03-21T02:06:01;5.70;99.90
64796;DHT22;51229;51.980;6.722;2023-03-21T02:08:36;5.80;99.90
64796;DHT22;51229;51.980;6.722;2023-03-21T02:11:07;5.80;99.90
64796;DHT22;51229;51.980;6.722;2023-03-21T02:13:40;5.80;99.90
64796;DHT22;51229;51.980;6.722;2023-03-21T02:16:12;5.80;99.90
64796;DHT22;51229;51.980;6.722;2023-03-21T02:27:00;5.70;99.90
64796;DHT22;51229;51.980;6.722;2023-03-21T02:29:38;5.80;99.90
64796;DHT22;51229;51.980;6.722;2023-03-21T02:35:24;5.80;99.90
64796;DHT22;51229;51.980;6.722;2023-03-21T02:38:08;5.80;99.90
64796;DHT22;51229;51.980;6.722;2023-03-21T02:40:39;5.80;99.90
64796;DHT22;51229;51.980;6.722;2023-03-21T02:43:38;5.80;99.90
64796;DHT22;51229;51.980;6.722;2023-03-21T02:46:09;5.90;99.90
64796;DHT22;51229;51.980;6.722;2023-03-21T02:48:44;5.80;99.90
64796;DHT22;51229;51.980;6.722;2023-03-21T02:51:12;5.80;99.90
64796;DHT22;51229;51.980;6.722;2023-03-21T02:53:43;5.80;99.90
64796;DHT22;51229;51.980;6.722;2023-03-21T02:56:10;5.80;99.90
64796;DHT22;51229;51.980;6.722;2023-03-21T02:58:42;5.80;99.90
64796;DHT22;51229;51.980;6.722;2023-03-21T03:01:08;5.80;99.90
64796;DHT22;51229;51.980;6.722;2023-03-21T03:03:40;5.90;99.90
64796;DHT22;51229;51.980;6.722;2023-03-21T03:06:19;5.80;99.90
64796;DHT22;51229;51.980;6.722;2023-03-21T03:09:19;5.80;99.90
64796;DHT22;51229;51.980;6.722;2023-03-21T03:11:55;5.70;99.90
64796;DHT22;51229;51.980;6.722;2023-03-21T03:20:27;5.80;99.90
64796;DHT22;51229;51.980;6.722;2023-03-21T03:23:08;5.80;99.90
64796;DHT22;51229;51.980;6.722;2023-03-21T03:25:52;5.80;99.90
64796;DHT22;51229;51.980;6.722;2023-03-21T03:28:24;5.80;99.90
64796;DHT22;51229;51.980;6.722;2023-03-21T03:30:52;5.80;99.90
64796;DHT22;51229;51.980;6.722;2023-03-21T03:33:25;5.70;99.90
64796;DHT22;51229;51.980;6.722;2023-03-21T03:35:54;5.80;99.90
64796;DHT22;51229;51.980;6.722;2023-03-21T03:38:22;5.80;99.90
64796;DHT22;51229;51.980;6.722;2023-03-21T03:41:00;5.80;99.90
64796;DHT22;51229;51.980;6.722;2023-03-21T03:43:47;5.80;99.90
64796;DHT22;51229;51.980;6.722;2023-03-21T03:46:28;5.80;99.90
64796;DHT22;51229;51.980;6.722;2023-03-21T03:49:17;5.80;99.90
64796;DHT22;51229;51.980;6.722;2023-03-21T03:52:01;5.90;99.90
64796;DHT22;51229;51.980;6.722;2023-03-21T03:54:41;5.90;99.90
64796;DHT22;51229;51.980;6.722;2023-03-21T03:57:08;5.90;99.90
64796;DHT22;51229;51.980;6.722;2023-03-21T03:59:38;5.80;99.90
64796;DHT22;51229;51.980;6.722;2023-03-21T04:02:25;5.90;99.90
64796;DHT22;51229;51.980;6.722;2023-03-21T04:04:52;5.90;99.90
64796;DHT22;51229;51.980;6.722;2023-03-21T04:07:21;5.90;99.90
64796;DHT22;51229;51.980;6.722;2023-03-21T04:09:49;5.80;99.90
64796;DHT22;51229;51.980;6.722;2023-03-21T04:12:18;5.90;99.90
64796;DHT22;51229;51.980;6.722;2023-03-21T04:15:13;5.80;99.90
64796;DHT22;51229;51.980;6.722;2023-03-21T04:17:44;5.80;99.90
64796;DHT22;51229;51.980;6.722;2023-03-21T04:20:11;5.80;99.90
64796;DHT22;51229;51.980;6.722;2023-03-21T04:22:37;5.80;99.90
64796;DHT22;51229;51.980;6.722;2023-03-21T04:25:03;5.80;99.90
64796;DHT22;51229;51.980;6.722;2023-03-21T04:27:33;5.80;99.90
64796;DHT22;51229;51.980;6.722;2023-03-21T04:30:20;5.80;99.90
64796;DHT22;51229;51.980;6.722;2023-03-21T04:33:00;5.80;99.90
64796;DHT22;51229;51.980;6.722;2023-03-21T04:35:27;5.80;99.90
64796;DHT22;51229;51.980;6.722;2023-03-21T04:37:54;5.70;99.90
64796;DHT22;51229;51.980;6.722;2023-03-21T04:40:20;5.70;99.90
64796;DHT22;51229;51.980;6.722;2023-03-21T04:42:47;5.70;99.90
64796;DHT22;51229;51.980;6.722;2023-03-21T04:45:14;5.70;99.90
64796;DHT22;51229;51.980;6.722;2023-03-21T04:47:43;5.70;99.90
64796;DHT22;51229;51.980;6.722;2023-03-21T04:50:10;5.60;99.90
64796;DHT22;51229;51.980;6.722;2023-03-21T04:52:38;5.60;99.90
64796;DHT22;51229;51.980;6.722;2023-03-21T04:55:04;5.60;99.90
64796;DHT22;51229;51.980;6.722;2023-03-21T04:57:35;5.60;99.90
64796;DHT22;51229;51.980;6.722;2023-03-21T05:00:04;5.50;99.90
64796;DHT22;51229;51.980;6.722;2023-03-21T05:02:34;5.60;99.90
64796;DHT22;51229;51.980;6.722;2023-03-21T05:05:00;5.50;99.90
64796;DHT22;51229;51.980;6.722;2023-03-21T05:07:26;5.50;99.90
64796;DHT22;51229;51.980;6.722;2023-03-21T05:09:52;5.50;99.90
64796;DHT22;51229;51.980;6.722;2023-03-21T05:12:18;5.50;99.90
64796;DHT22;51229;51.980;6.722;2023-03-21T05:14:44;5.40;99.90
64796;DHT22;51229;51.980;6.722;2023-03-21T05:17:09;5.50;99.90
64796;DHT22;51229;51.980;6.722;2023-03-21T05:19:40;5.40;99.90
64796;DHT22;51229;51.980;6.722;2023-03-21T05:22:08;5.50;99.90
64796;DHT22;51229;51.980;6.722;2023-03-21T05:24:36;5.40;99.90
64796;DHT22;51229;51.980;6.722;2023-03-21T05:27:05;5.30;99.90
64796;DHT22;51229;51.980;6.722;2023-03-21T05:29:39;5.30;99.90
64796;DHT22;51229;51.980;6.722;2023-03-21T05:32:06;5.20;99.90
64796;DHT22;51229;51.980;6.722;2023-03-21T05:34:31;5.20;99.90
64796;DHT22;51229;51.980;6.722;2023-03-21T05:36:58;5.20;99.90
64796;DHT22;51229;51.980;6.722;2023-03-21T05:39:29;5.20;99.90
64796;DHT22;51229;51.980;6.722;2023-03-21T05:42:00;5.30;99.90
64796;DHT22;51229;51.980;6.722;2023-03-21T05:44:26;5.20;99.90
64796;DHT22;51229;51.980;6.722;2023-03-21T05:46:52;5.20;99.90
64796;DHT22;51229;51.980;6.722;2023-03-21T05:49:23;5.20;99.90
64796;DHT22;51229;51.980;6.722;2023-03-21T05:51:54;5.20;99.90
64796;DHT22;51229;51.980;6.722;2023-03-21T05:54:19;5.20;99.90
64796;DHT22;51229;51.980;6.722;2023-03-21T05:56:47;5.10;99.90
64796;DHT22;51229;51.980;6.722;2023-03-21T05:59:22;5.10;99.90
64796;DHT22;51229;51.980;6.722;2023-03-21T06:01:50;5.10;99.90
64796;DHT22;51229;51.980;6.722;2023-03-21T06:04:16;5.10;99.90
64796;DHT22;51229;51.980;6.722;2023-03-21T06:06:42;5.10;99.90
64796;DHT22;51229;51.980;6.722;2023-03-21T06:09:08;5.10;99.90
64796;DHT22;51229;51.980;6.722;2023-03-21T06:11:36;5.20;99.90
64796;DHT22;51229;51.980;6.722;2023-03-21T06:14:40;5.20;99.90
64796;DHT22;51229;51.980;6.722;2023-03-21T06:17:17;5.20;99.90
64796;DHT22;51229;51.980;6.722;2023-03-21T06:19:51;5.20;99.90
64796;DHT22;51229;51.980;6.722;2023-03-21T06:22:22;5.20;99.90
64796;DHT22;51229;51.980;6.722;2023-03-21T06:24:48;5.20;99.90
64796;DHT22;51229;51.980;6.722;2023-03-21T06:27:16;5.20;99.90
64796;DHT22;51229;51.980;6.722;2023-03-21T06:29:49;5.20;99.90
64796;DHT22;51229;51.980;6.722;2023-03-21T06:32:15;5.10;99.90
64796;DHT22;51229;51.980;6.722;2023-03-21T06:34:42;5.20;99.90
64796;DHT22;51229;51.980;6.722;2023-03-21T06:37:12;5.10;99.90
64796;DHT22;51229;51.980;6.722;2023-03-21T06:39:38;5.20;99.90
64796;DHT22;51229;51.980;6.722;2023-03-21T06:42:03;5.20;99.90
64796;DHT22;51229;51.980;6.722;2023-03-21T06:44:29;5.20;99.90
64796;DHT22;51229;51.980;6.722;2023-03-21T06:47:01;5.20;99.90
64796;DHT22;51229;51.980;6.722;2023-03-21T06:49:26;5.20;99.90
64796;DHT22;51229;51.980;6.722;2023-03-21T06:51:54;5.20;99.90
64796;DHT22;51229;51.980;6.722;2023-03-21T06:54:20;5.20;99.90
64796;DHT22;51229;51.980;6.722;2023-03-21T06:56:52;5.10;99.90
64796;DHT22;51229;51.980;6.722;2023-03-21T06:59:24;5.10;99.90
64796;DHT22;51229;51.980;6.722;2023-03-21T07:01:54;5.20;99.90
64796;DHT22;51229;51.980;6.722;2023-03-21T07:04:20;5.20;99.90
64796;DHT22;51229;51.980;6.722;2023-03-21T07:06:48;5.20;99.90
64796;DHT22;51229;51.980;6.722;2023-03-21T07:09:14;5.30;99.90
64796;DHT22;51229;51.980;6.722;2023-03-21T07:11:42;5.20;99.90
64796;DHT22;51229;51.980;6.722;2023-03-21T07:14:08;5.30;99.90
64796;DHT22;51229;51.980;6.722;2023-03-21T07:16:33;5.30;99.90
64796;DHT22;51229;51.980;6.722;2023-03-21T07:19:00;5.30;99.90
64796;DHT22;51229;51.980;6.722;2023-03-21T07:21:26;5.30;99.90
64796;DHT22;51229;51.980;6.722;2023-03-21T07:23:52;5.30;99.90
64796;DHT22;51229;51.980;6.722;2023-03-21T07:26:18;5.30;99.90
64796;DHT22;51229;51.980;6.722;2023-03-21T07:28:45;5.40;99.90
64796;DHT22;51229;51.980;6.722;2023-03-21T07:31:15;5.40;99.90
64796;DHT22;51229;51.980;6.722;2023-03-21T07:33:41;5.40;99.90
64796;DHT22;51229;51.980;6.722;2023-03-21T07:36:13;5.40;99.90
64796;DHT22;51229;51.980;6.722;2023-03-21T07:38:41;5.50;99.90
64796;DHT22;51229;51.980;6.722;2023-03-21T07:41:07;5.60;99.90
64796;DHT22;51229;51.980;6.722;2023-03-21T07:43:33;5.60;99.90
64796;DHT22;51229;51.980;6.722;2023-03-21T07:45:59;5.70;99.90
64796;DHT22;51229;51.980;6.722;2023-03-21T07:48:26;5.80;99.90
64796;DHT22;51229;51.980;6.722;2023-03-21T07:50:52;5.80;99.90
64796;DHT22;51229;51.980;6.722;2023-03-21T07:53:18;5.80;99.90
64796;DHT22;51229;51.980;6.722;2023-03-21T07:55:44;5.80;99.90
64796;DHT22;51229;51.980;6.722;2023-03-21T07:58:09;5.90;99.90
64796;DHT22;51229;51.980;6.722;2023-03-21T08:00:35;5.90;99.90
64796;DHT22;51229;51.980;6.722;2023-03-21T08:03:01;5.90;99.90
64796;DHT22;51229;51.980;6.722;2023-03-21T08:05:29;6.00;99.90
64796;DHT22;51229;51.980;6.722;2023-03-21T08:07:55;6.00;99.90
64796;DHT22;51229;51.980;6.722;2023-03-21T08:10:21;6.10;99.90
64796;DHT22;51229;51.980;6.722;2023-03-21T08:12:47;6.20;99.90
64796;DHT22;51229;51.980;6.722;2023-03-21T08:15:13;6.20;99.90
64796;DHT22;51229;51.980;6.722;2023-03-21T08:17:40;6.20;99.90
64796;DHT22;51229;51.980;6.722;2023-03-21T08:20:07;6.20;99.90
64796;DHT22;51229;51.980;6.722;2023-03-21T08:22:34;6.20;99.90
64796;DHT22;51229;51.980;6.722;2023-03-21T08:25:02;6.30;99.90
64796;DHT22;51229;51.980;6.722;2023-03-21T08:27:29;6.40;99.90
64796;DHT22;51229;51.980;6.722;2023-03-21T08:29:55;6.40;99.90
64796;DHT22;51229;51.980;6.722;2023-03-21T08:32:20;6.50;99.90
64796;DHT22;51229;51.980;6.722;2023-03-21T08:34:59;6.50;99.90
64796;DHT22;51229;51.980;6.722;2023-03-21T08:37:26;6.60;99.90
64796;DHT22;51229;51.980;6.722;2023-03-21T08:39:52;6.60;99.90
64796;DHT22;51229;51.980;6.722;2023-03-21T08:42:19;6.70;99.90
64796;DHT22;51229;51.980;6.722;2023-03-21T08:44:45;6.80;99.90
64796;DHT22;51229;51.980;6.722;2023-03-21T08:47:11;6.80;99.90
64796;DHT22;51229;51.980;6.722;2023-03-21T08:49:37;6.80;99.90
64796;DHT22;51229;51.980;6.722;2023-03-21T08:52:03;6.70;99.90
64796;DHT22;51229;51.980;6.722;2023-03-21T08:54:29;6.70;99.90
64796;DHT22;51229;51.980;6.722;2023-03-21T08:56:55;6.70;99.90
64796;DHT22;51229;51.980;6.722;2023-03-21T08:59:21;6.80;99.90
64796;DHT22;51229;51.980;6.722;2023-03-21T09:01:46;6.70;99.90
64796;DHT22;51229;51.980;6.722;2023-03-21T09:04:12;6.80;99.90
64796;DHT22;51229;51.980;6.722;2023-03-21T09:06:39;6.80;99.90
64796;DHT22;51229;51.980;6.722;2023-03-21T09:09:06;6.70;99.90
64796;DHT22;51229;51.980;6.722;2023-03-21T09:11:33;6.60;99.90
64796;DHT22;51229;51.980;6.722;2023-03-21T09:14:00;6.50;99.90
64796;DHT22;51229;51.980;6.722;2023-03-21T09:16:26;6.50;99.90
64796;DHT22;51229;51.980;6.722;2023-03-21T09:18:52;6.50;99.90
64796;DHT22;51229;51.980;6.722;2023-03-21T09:21:20;6.50;99.90
64796;DHT22;51229;51.980;6.722;2023-03-21T09:23:48;6.40;99.90
64796;DHT22;51229;51.980;6.722;2023-03-21T09:26:16;6.30;99.90
64796;DHT22;51229;51.980;6.722;2023-03-21T09:28:42;6.30;99.90
64796;DHT22;51229;51.980;6.722;2023-03-21T09:31:08;6.30;99.90
64796;DHT22;51229;51.980;6.722;2023-03-21T09:33:39;6.40;99.90
64796;DHT22;51229;51.980;6.722;2023-03-21T09:36:07;6.40;99.90
64796;DHT22;51229;51.980;6.722;2023-03-21T09:38:37;6.40;99.90
64796;DHT22;51229;51.980;6.722;2023-03-21T09:44:21;6.40;99.90
64796;DHT22;51229;51.980;6.722;2023-03-21T09:46:54;6.40;99.90
64796;DHT22;51229;51.980;6.722;2023-03-21T09:49:26;6.50;99.90
64796;DHT22;51229;51.980;6.722;2023-03-21T09:51:57;6.50;99.90
64796;DHT22;51229;51.980;6.722;2023-03-21T09:54:38;6.50;99.90
64796;DHT22;51229;51.980;6.722;2023-03-21T09:59:51;6.40;99.90
64796;DHT22;51229;51.980;6.722;2023-03-21T10:04:47;6.60;99.90
64796;DHT22;51229;51.980;6.722;2023-03-21T10:07:13;6.70;99.90
64796;DHT22;51229;51.980;6.722;2023-03-21T10:09:43;6.70;99.90
64796;DHT22;51229;51.980;6.722;2023-03-21T10:12:20;6.60;99.90
64796;DHT22;51229;51.980;6.722;2023-03-21T10:14:49;6.70;99.90
64796;DHT22;51229;51.980;6.722;2023-03-21T10:17:34;6.70;99.90
64796;DHT22;51229;51.980;6.722;2023-03-21T10:22:39;6.90;99.90
64796;DHT22;51229;51.980;6.722;2023-03-21T10:25:06;7.00;99.90
64796;DHT22;51229;51.980;6.722;2023-03-21T10:27:33;7.00;99.90
64796;DHT22;51229;51.980;6.722;2023-03-21T10:30:02;7.00;99.90
64796;DHT22;51229;51.980;6.722;2023-03-21T10:32:31;7.00;99.90
64796;DHT22;51229;51.980;6.722;2023-03-21T10:34:58;7.10;99.90
64796;DHT22;51229;51.980;6.722;2023-03-21T10:37:24;7.00;99.90
64796;DHT22;51229;51.980;6.722;2023-03-21T10:39:52;6.90;99.90
64796;DHT22;51229;51.980;6.722;2023-03-21T10:42:29;6.90;99.90
64796;DHT22;51229;51.980;6.722;2023-03-21T10:44:57;7.00;99.90
64796;DHT22;51229;51.980;6.722;2023-03-21T10:47:30;7.10;99.90
64796;DHT22;51229;51.980;6.722;2023-03-21T10:50:01;7.00;99.90
64796;DHT22;51229;51.980;6.722;2023-03-21T10:52:29;7.00;99.90
64796;DHT22;51229;51.980;6.722;2023-03-21T10:57:41;6.90;99.90
64796;DHT22;51229;51.980;6.722;2023-03-21T11:00:09;6.90;99.90
64796;DHT22;51229;51.980;6.722;2023-03-21T11:02:41;6.80;99.90
64796;DHT22;51229;51.980;6.722;2023-03-21T11:05:24;6.80;99.90
64796;DHT22;51229;51.980;6.722;2023-03-21T11:08:02;6.90;99.90
64796;DHT22;51229;51.980;6.722;2023-03-21T11:10:35;7.00;99.90
64796;DHT22;51229;51.980;6.722;2023-03-21T11:13:05;7.00;99.90
64796;DHT22;51229;51.980;6.722;2023-03-21T11:15:41;7.10;99.90
64796;DHT22;51229;51.980;6.722;2023-03-21T11:18:19;7.20;99.90
64796;DHT22;51229;51.980;6.722;2023-03-21T11:21:06;7.20;99.90
64796;DHT22;51229;51.980;6.722;2023-03-21T11:23:36;7.20;99.90
64796;DHT22;51229;51.980;6.722;2023-03-21T11:26:08;7.30;99.90
64796;DHT22;51229;51.980;6.722;2023-03-21T11:28:38;7.50;99.90
64796;DHT22;51229;51.980;6.722;2023-03-21T11:31:04;7.60;99.90
64796;DHT22;51229;51.980;6.722;2023-03-21T11:33:51;7.50;99.90
64796;DHT22;51229;51.980;6.722;2023-03-21T11:38:50;7.60;99.90
64796;DHT22;51229;51.980;6.722;2023-03-21T11:41:31;7.80;99.90
64796;DHT22;51229;51.980;6.722;2023-03-21T11:43:58;8.00;99.90
64796;DHT22;51229;51.980;6.722;2023-03-21T11:46:27;8.00;99.90
64796;DHT22;51229;51.980;6.722;2023-03-21T11:48:54;8.00;99.90
64796;DHT22;51229;51.980;6.722;2023-03-21T11:54:09;8.10;99.90
64796;DHT22;51229;51.980;6.722;2023-03-21T11:56:44;8.30;99.90
64796;DHT22;51229;51.980;6.722;2023-03-21T11:59:19;8.30;99.90
64796;DHT22;51229;51.980;6.722;2023-03-21T12:04:59;8.20;99.90
64796;DHT22;51229;51.980;6.722;2023-03-21T12:13:12;8.30;99.90
64796;DHT22;51229;51.980;6.722;2023-03-21T12:21:10;8.40;99.90
64796;DHT22;51229;51.980;6.722;2023-03-21T12:23:47;8.40;99.90
64796;DHT22;51229;51.980;6.722;2023-03-21T12:26:25;8.40;99.90
64796;DHT22;51229;51.980;6.722;2023-03-21T12:34:56;8.40;99.90
64796;DHT22;51229;51.980;6.722;2023-03-21T12:43:46;8.70;99.90
64796;DHT22;51229;51.980;6.722;2023-03-21T12:46:27;8.80;99.90
64796;DHT22;51229;51.980;6.722;2023-03-21T12:48:59;8.90;99.90
64796;DHT22;51229;51.980;6.722;2023-03-21T12:51:29;8.90;99.90
64796;DHT22;51229;51.980;6.722;2023-03-21T12:54:13;9.00;99.90
64796;DHT22;51229;51.980;6.722;2023-03-21T12:57:03;9.10;99.90
64796;DHT22;51229;51.980;6.722;2023-03-21T12:59:54;9.00;99.90
64796;DHT22;51229;51.980;6.722;2023-03-21T13:02:28;9.00;99.90
64796;DHT22;51229;51.980;6.722;2023-03-21T13:05:02;8.90;99.90
64796;DHT22;51229;51.980;6.722;2023-03-21T13:07:34;9.00;99.90
64796;DHT22;51229;51.980;6.722;2023-03-21T13:10:01;9.00;99.90
64796;DHT22;51229;51.980;6.722;2023-03-21T13:12:47;8.90;99.90
64796;DHT22;51229;51.980;6.722;2023-03-21T13:20:54;9.00;99.90
64796;DHT22;51229;51.980;6.722;2023-03-21T13:23:23;9.20;99.90
64796;DHT22;51229;51.980;6.722;2023-03-21T13:25:50;9.20;99.90
64796;DHT22;51229;51.980;6.722;2023-03-21T13:28:22;9.20;99.90
64796;DHT22;51229;51.980;6.722;2023-03-21T13:30:50;9.30;99.90
64796;DHT22;51229;51.980;6.722;2023-03-21T13:33:28;9.40;99.90
64796;DHT22;51229;51.980;6.722;2023-03-21T13:36:04;9.30;99.90
64796;DHT22;51229;51.980;6.722;2023-03-21T13:38:35;9.40;99.90
64796;DHT22;51229;51.980;6.722;2023-03-21T13:41:07;9.40;99.90
64796;DHT22;51229;51.980;6.722;2023-03-21T13:43:52;9.30;99.90
64796;DHT22;51229;51.980;6.722;2023-03-21T13:48:54;9.30;99.90
64796;DHT22;51229;51.980;6.722;2023-03-21T13:54:00;9.30;99.90
64796;DHT22;51229;51.980;6.722;2023-03-21T13:56:26;9.30;99.90
64796;DHT22;51229;51.980;6.722;2023-03-21T13:59:00;9.30;99.90
64796;DHT22;51229;51.980;6.722;2023-03-21T14:01:33;9.30;99.90
64796;DHT22;51229;51.980;6.722;2023-03-21T14:04:05;9.30;99.90
64796;DHT22;51229;51.980;6.722;2023-03-21T14:06:41;9.40;99.90
64796;DHT22;51229;51.980;6.722;2023-03-21T14:09:11;9.30;99.90
64796;DHT22;51229;51.980;6.722;2023-03-21T14:11:40;9.30;99.90
64796;DHT22;51229;51.980;6.722;2023-03-21T14:14:07;9.30;99.90
64796;DHT22;51229;51.980;6.722;2023-03-21T14:16:34;9.30;99.90
64796;DHT22;51229;51.980;6.722;2023-03-21T14:19:03;9.20;99.90
64796;DHT22;51229;51.980;6.722;2023-03-21T14:21:32;9.30;99.90
64796;DHT22;51229;51.980;6.722;2023-03-21T14:24:10;9.40;99.90
64796;DHT22;51229;51.980;6.722;2023-03-21T14:26:41;9.30;99.90
64796;DHT22;51229;51.980;6.722;2023-03-21T14:29:14;9.40;99.90
64796;DHT22;51229;51.980;6.722;2023-03-21T14:31:44;9.70;99.90
64796;DHT22;51229;51.980;6.722;2023-03-21T14:34:13;9.90;99.90
64796;DHT22;51229;51.980;6.722;2023-03-21T14:36:39;9.80;99.90
64796;DHT22;51229;51.980;6.722;2023-03-21T14:41:48;9.80;99.90
64796;DHT22;51229;51.980;6.722;2023-03-21T14:44:16;9.90;99.90
64796;DHT22;51229;51.980;6.722;2023-03-21T14:46:43;9.90;99.90
64796;DHT22;51229;51.980;6.722;2023-03-21T14:49:29;10.00;99.90
64796;DHT22;51229;51.980;6.722;2023-03-21T14:51:58;10.20;99.90
64796;DHT22;51229;51.980;6.722;2023-03-21T14:54:25;10.30;99.90
64796;DHT22;51229;51.980;6.722;2023-03-21T14:56:56;10.30;99.90
64796;DHT22;51229;51.980;6.722;2023-03-21T14:59:26;10.40;99.90
64796;DHT22;51229;51.980;6.722;2023-03-21T15:01:54;10.40;99.90
64796;DHT22;51229;51.980;6.722;2023-03-21T15:04:20;10.50;99.90
64796;DHT22;51229;51.980;6.722;2023-03-21T15:06:58;10.50;99.90
64796;DHT22;51229;51.980;6.722;2023-03-21T15:09:28;10.60;99.90
64796;DHT22;51229;51.980;6.722;2023-03-21T15:11:56;10.60;99.90
64796;DHT22;51229;51.980;6.722;2023-03-21T15:14:26;10.70;99.90
64796;DHT22;51229;51.980;6.722;2023-03-21T15:16:53;10.80;99.90
64796;DHT22;51229;51.980;6.722;2023-03-21T15:19:27;10.80;99.90
64796;DHT22;51229;51.980;6.722;2023-03-21T15:21:59;10.70;99.90
64796;DHT22;51229;51.980;6.722;2023-03-21T15:24:29;10.70;99.90
64796;DHT22;51229;51.980;6.722;2023-03-21T15:27:06;10.60;99.90
64796;DHT22;51229;51.980;6.722;2023-03-21T15:29:33;10.60;99.90
64796;DHT22;51229;51.980;6.722;2023-03-21T15:32:05;10.60;99.90
64796;DHT22;51229;51.980;6.722;2023-03-21T15:34:32;10.70;99.90
64796;DHT22;51229;51.980;6.722;2023-03-21T15:37:03;10.60;99.90
64796;DHT22;51229;51.980;6.722;2023-03-21T15:39:30;10.60;99.90
64796;DHT22;51229;51.980;6.722;2023-03-21T15:44:25;10.40;99.90
64796;DHT22;51229;51.980;6.722;2023-03-21T15:46:51;10.40;99.90
64796;DHT22;51229;51.980;6.722;2023-03-21T15:49:31;10.50;99.90
64796;DHT22;51229;51.980;6.722;2023-03-21T15:52:00;10.40;99.90
64796;DHT22;51229;51.980;6.722;2023-03-21T15:57:03;10.30;99.90
64796;DHT22;51229;51.980;6.722;2023-03-21T15:59:37;10.30;99.90
64796;DHT22;51229;51.980;6.722;2023-03-21T16:02:17;10.30;99.90
64796;DHT22;51229;51.980;6.722;2023-03-21T16:04:58;10.20;99.90
64796;DHT22;51229;51.980;6.722;2023-03-21T16:07:25;10.10;99.90
64796;DHT22;51229;51.980;6.722;2023-03-21T16:09:59;10.20;99.90
64796;DHT22;51229;51.980;6.722;2023-03-21T16:12:25;10.20;99.90
64796;DHT22;51229;51.980;6.722;2023-03-21T16:14:51;10.20;99.90
64796;DHT22;51229;51.980;6.722;2023-03-21T16:17:31;10.20;99.90
64796;DHT22;51229;51.980;6.722;2023-03-21T16:19:58;10.20;99.90
64796;DHT22;51229;51.980;6.722;2023-03-21T16:22:25;10.20;99.90
64796;DHT22;51229;51.980;6.722;2023-03-21T16:24:51;10.00;99.90
64796;DHT22;51229;51.980;6.722;2023-03-21T16:27:18;10.00;99.90
64796;DHT22;51229;51.980;6.722;2023-03-21T16:29:43;10.00;99.90
64796;DHT22;51229;51.980;6.722;2023-03-21T16:32:15;10.10;99.90
64796;DHT22;51229;51.980;6.722;2023-03-21T16:34:41;10.00;99.90
64796;DHT22;51229;51.980;6.722;2023-03-21T16:37:11;9.90;99.90
64796;DHT22;51229;51.980;6.722;2023-03-21T16:39:37;10.00;99.90
64796;DHT22;51229;51.980;6.722;2023-03-21T16:42:03;9.90;99.90
64796;DHT22;51229;51.980;6.722;2023-03-21T16:44:28;9.90;99.90
64796;DHT22;51229;51.980;6.722;2023-03-21T16:46:54;9.90;99.90
64796;DHT22;51229;51.980;6.722;2023-03-21T16:49:24;9.90;99.90
64796;DHT22;51229;51.980;6.722;2023-03-21T16:51:52;9.90;99.90
64796;DHT22;51229;51.980;6.722;2023-03-21T16:54:18;9.80;99.90
64796;DHT22;51229;51.980;6.722;2023-03-21T16:56:46;9.80;99.90
64796;DHT22;51229;51.980;6.722;2023-03-21T16:59:13;9.70;99.90
64796;DHT22;51229;51.980;6.722;2023-03-21T17:01:40;9.80;99.90
64796;DHT22;51229;51.980;6.722;2023-03-21T17:04:07;9.80;99.90
64796;DHT22;51229;51.980;6.722;2023-03-21T17:06:38;9.70;99.90
64796;DHT22;51229;51.980;6.722;2023-03-21T17:09:06;9.70;99.90
64796;DHT22;51229;51.980;6.722;2023-03-21T17:11:31;9.60;99.90
64796;DHT22;51229;51.980;6.722;2023-03-21T17:14:00;9.70;99.90
64796;DHT22;51229;51.980;6.722;2023-03-21T17:16:27;9.60;99.90
64796;DHT22;51229;51.980;6.722;2023-03-21T17:18:54;9.60;99.90
64796;DHT22;51229;51.980;6.722;2023-03-21T17:21:25;9.60;99.90
64796;DHT22;51229;51.980;6.722;2023-03-21T17:23:51;9.60;99.90
64796;DHT22;51229;51.980;6.722;2023-03-21T17:26:21;9.50;99.90